Time;durP1;ratioP1;P1;durP2;ratioP2;P2;SDS_P1;SDS_P2;PMS_P1;PMS_P2;Temp;Humidity;BMP_temperature;BMP_pressure;BME280_temperature;BME280_humidity;BME280_pressure;Samples;Min_cycle;Max_cycle;Signal;HPM_P1;HPM_P2
2023/07/30 00:00:55;;;;;;;2.13;1.70;;;;;;;;;;5036998;28;20026;-77
2023/07/30 00:03:21;;;;;;;3.78;1.83;;;;;;;;;;5019874;28;20043;-75
2023/07/30 00:05:58;;;;;;;4.10;2.50;;;;;;;;;;5018891;28;20021;-77
2023/07/30 00:08:24;;;;;;;2.20;1.88;;;;;;;;;;5019313;28;20026;-76
2023/07/30 00:10:50;;;;;;;3.53;2.13;;;;;;;;;;5037200;28;20025;-77
2023/07/30 00:13:17;;;;;;;4.20;1.98;;;;;;;;;;5037157;28;20036;-76
2023/07/30 00:15:45;;;;;;;2.38;1.73;;;;;;;;;;5019418;28;20044;-76
2023/07/30 00:18:14;;;;;;;4.50;2.03;;;;;;;;;;5019713;28;20425;-73
2023/07/30 00:20:40;;;;;;;3.15;1.45;;;;;;;;;;5019957;28;20022;-74
2023/07/30 00:23:09;;;;;;;3.65;1.80;;;;;;;;;;5038004;28;20038;-75
2023/07/30 00:25:35;;;;;;;2.88;1.80;;;;;;;;;;5021299;28;20037;-76
2023/07/30 00:28:04;;;;;;;2.63;1.75;;;;;;;;;;5020487;28;20477;-76
2023/07/30 00:30:32;;;;;;;2.13;1.90;;;;;;;;;;5021007;28;20030;-76
2023/07/30 00:32:58;;;;;;;2.28;1.58;;;;;;;;;;5022256;28;20544;-76
2023/07/30 00:35:27;;;;;;;3.20;1.92;;;;;;;;;;5021515;28;20573;-75
2023/07/30 00:37:53;;;;;;;2.72;2.45;;;;;;;;;;5040287;28;20084;-75
2023/07/30 00:40:19;;;;;;;4.63;2.00;;;;;;;;;;5021349;28;20037;-76
2023/07/30 00:42:48;;;;;;;3.30;2.05;;;;;;;;;;5019653;28;20862;-77
2023/07/30 00:45:14;;;;;;;2.47;2.00;;;;;;;;;;5019062;28;20115;-75
2023/07/30 00:47:41;;;;;;;5.40;2.53;;;;;;;;;;5018175;28;20473;-76
2023/07/30 00:50:08;;;;;;;3.22;2.08;;;;;;;;;;5017344;28;20021;-75
2023/07/30 00:52:35;;;;;;;6.85;2.60;;;;;;;;;;5035866;28;20029;-76
2023/07/30 00:55:07;;;;;;;9.50;1.95;;;;;;;;;;5017172;28;20029;-76
2023/07/30 00:57:36;;;;;;;2.80;2.15;;;;;;;;;;5016757;28;20123;-76
2023/07/30 01:00:07;;;;;;;3.85;2.03;;;;;;;;;;5000804;28;20034;-76
2023/07/30 01:02:35;;;;;;;;;;;;;;;;;;5017931;28;20031;-75
2023/07/30 01:05:06;;;;;;;4.40;2.08;;;;;;;;;;5034788;28;19975;-75
2023/07/30 01:07:32;;;;;;;;;;;;;;;;;;5035364;28;20044;-75
2023/07/30 01:10:00;;;;;;;3.50;2.17;;;;;;;;;;5033750;28;20373;-76
2023/07/30 01:12:29;;;;;;;4.30;2.03;;;;;;;;;;5032897;28;20029;-76
2023/07/30 01:14:57;;;;;;;2.20;1.80;;;;;;;;;;5014579;28;20078;-76
2023/07/30 01:17:24;;;;;;;4.45;2.17;;;;;;;;;;5016035;28;20481;-76
2023/07/30 01:19:54;;;;;;;4.85;1.92;;;;;;;;;;5016522;28;20033;-75
2023/07/30 01:22:21;;;;;;;3.70;2.03;;;;;;;;;;5016379;28;20381;-75
2023/07/30 01:24:47;;;;;;;5.45;2.00;;;;;;;;;;5016561;28;20498;-76
2023/07/30 01:27:29;;;;;;;3.08;2.10;;;;;;;;;;5034920;28;20366;-75
2023/07/30 01:30:07;;;;;;;;;;;;;;;;;;5035442;28;20095;-77
2023/07/30 01:32:34;;;;;;;2.88;1.83;;;;;;;;;;5018871;28;19976;-76
2023/07/30 01:35:04;;;;;;;3.13;2.17;;;;;;;;;;5038586;28;20103;-76
2023/07/30 01:37:32;;;;;;;1.98;1.77;;;;;;;;;;5039232;28;20044;-75
2023/07/30 01:39:59;;;;;;;3.03;2.03;;;;;;;;;;5042848;28;20033;-75
2023/07/30 01:42:30;;;;;;;2.28;1.92;;;;;;;;;;5026202;28;20021;-73
2023/07/30 01:44:56;;;;;;;2.45;1.95;;;;;;;;;;5036281;28;20025;-75
2023/07/30 01:47:22;;;;;;;10.00;2.30;;;;;;;;;;5034878;28;20485;-76
2023/07/30 01:49:49;;;;;;;3.35;1.77;;;;;;;;;;5016487;28;20092;-76
2023/07/30 01:52:17;;;;;;;4.43;2.67;;;;;;;;;;5016693;28;20120;-75
2023/07/30 01:54:44;;;;;;;3.15;2.20;;;;;;;;;;5017310;28;20049;-75
2023/07/30 01:57:10;;;;;;;3.22;2.00;;;;;;;;;;5016818;28;20083;-77
2023/07/30 01:59:42;;;;;;;4.00;2.30;;;;;;;;;;5000047;28;20060;-76
2023/07/30 02:02:08;;;;;;;4.10;2.00;;;;;;;;;;5017258;28;20040;-75
2023/07/30 02:04:34;;;;;;;5.03;2.55;;;;;;;;;;5016524;28;20025;-75
2023/07/30 02:07:00;;;;;;;3.28;2.22;;;;;;;;;;5034570;28;20032;-77
2023/07/30 02:09:26;;;;;;;3.85;2.25;;;;;;;;;;5035624;28;20021;-77
2023/07/30 02:11:52;;;;;;;6.53;2.50;;;;;;;;;;5033744;28;20067;-75
2023/07/30 02:14:22;;;;;;;3.35;1.83;;;;;;;;;;5015760;28;20065;-76
2023/07/30 02:16:49;;;;;;;2.75;2.03;;;;;;;;;;5016694;28;20040;-75
2023/07/30 02:19:15;;;;;;;2.55;2.05;;;;;;;;;;5035803;28;20033;-76
2023/07/30 02:21:42;;;;;;;2.35;1.73;;;;;;;;;;5017436;28;20056;-75
2023/07/30 02:24:11;;;;;;;6.35;2.70;;;;;;;;;;5017989;28;20054;-75
2023/07/30 02:26:38;;;;;;;6.40;1.95;;;;;;;;;;5018023;28;20021;-76
2023/07/30 02:29:04;;;;;;;3.15;2.10;;;;;;;;;;5023745;28;20049;-75
2023/07/30 02:31:30;;;;;;;2.45;2.22;;;;;;;;;;5033753;28;20037;-76
2023/07/30 02:33:57;;;;;;;2.80;2.17;;;;;;;;;;5033794;28;20063;-75
2023/07/30 02:36:23;;;;;;;3.33;2.17;;;;;;;;;;5033272;28;20029;-76
2023/07/30 02:38:50;;;;;;;1.83;1.55;;;;;;;;;;5017055;28;20037;-76
2023/07/30 02:41:17;;;;;;;3.78;1.90;;;;;;;;;;5033166;28;20029;-75
2023/07/30 02:43:42;;;;;;;5.57;2.22;;;;;;;;;;5033864;28;20457;-76
2023/07/30 02:46:08;;;;;;;2.67;1.80;;;;;;;;;;5035298;28;20075;-76
2023/07/30 02:48:34;;;;;;;5.40;2.42;;;;;;;;;;5036528;28;20071;-76
2023/07/30 02:50:59;;;;;;;2.97;2.13;;;;;;;;;;5035898;28;20044;-76
2023/07/30 02:53:29;;;;;;;4.05;1.88;;;;;;;;;;5036885;28;20040;-75
2023/07/30 02:55:55;;;;;;;3.00;1.90;;;;;;;;;;5035556;28;20044;-76
2023/07/30 02:58:21;;;;;;;2.15;1.95;;;;;;;;;;5035760;28;20021;-74
2023/07/30 03:00:46;;;;;;;2.70;1.98;;;;;;;;;;5034191;28;20026;-75
2023/07/30 03:03:12;;;;;;;4.82;2.40;;;;;;;;;;5035809;28;20477;-76
2023/07/30 03:05:42;;;;;;;5.72;2.78;;;;;;;;;;5035751;28;20350;-76
2023/07/30 03:08:08;;;;;;;2.53;1.98;;;;;;;;;;5019745;28;20053;-75
2023/07/30 03:10:36;;;;;;;3.35;2.58;;;;;;;;;;5033914;28;20120;-75
2023/07/30 03:13:02;;;;;;;4.25;2.58;;;;;;;;;;5032439;28;20029;-75
2023/07/30 03:15:28;;;;;;;2.75;2.20;;;;;;;;;;5031786;28;20032;-75
2023/07/30 03:17:53;;;;;;;5.60;2.75;;;;;;;;;;5033580;28;20021;-76
2023/07/30 03:20:19;;;;;;;2.08;1.88;;;;;;;;;;5031867;28;20029;-76
2023/07/30 03:22:48;;;;;;;3.17;1.98;;;;;;;;;;5033804;28;20163;-76
2023/07/30 03:25:15;;;;;;;5.05;2.38;;;;;;;;;;5032341;28;20029;-76
2023/07/30 03:27:41;;;;;;;3.42;2.10;;;;;;;;;;5035131;28;20087;-75
2023/07/30 03:30:09;;;;;;;5.72;2.90;;;;;;;;;;5035813;28;20046;-76
2023/07/30 03:32:34;;;;;;;5.47;2.35;;;;;;;;;;5035158;28;20585;-76
2023/07/30 03:35:03;;;;;;;3.90;2.25;;;;;;;;;;5034975;28;20452;-75
2023/07/30 03:37:30;;;;;;;2.40;2.20;;;;;;;;;;5034875;28;20026;-77
2023/07/30 03:39:56;;;;;;;4.85;2.30;;;;;;;;;;5035591;28;20104;-75
2023/07/30 03:42:22;;;;;;;3.70;2.28;;;;;;;;;;5037162;28;20060;-76
2023/07/30 03:44:48;;;;;;;4.63;2.47;;;;;;;;;;5035631;28;20458;-75
2023/07/30 03:47:14;;;;;;;7.15;2.90;;;;;;;;;;5035442;28;20025;-76
2023/07/30 03:49:40;;;;;;;4.68;2.08;;;;;;;;;;5035810;28;20084;-77
2023/07/30 03:52:06;;;;;;;5.57;2.42;;;;;;;;;;5036035;28;20523;-76
2023/07/30 03:54:39;;;;;;;3.88;2.40;;;;;;;;;;5035688;28;20024;-77
2023/07/30 03:57:05;;;;;;;3.78;2.33;;;;;;;;;;5036045;28;20209;-76
2023/07/30 03:59:32;;;;;;;3.35;2.35;;;;;;;;;;5035340;28;20030;-76
2023/07/30 04:01:58;;;;;;;3.05;2.40;;;;;;;;;;5035329;28;20119;-74
2023/07/30 04:04:27;;;;;;;6.00;2.20;;;;;;;;;;5019939;28;20509;-76
2023/07/30 04:06:56;;;;;;;2.33;2.05;;;;;;;;;;5052240;28;20029;-76
2023/07/30 04:09:23;;;;;;;2.88;2.20;;;;;;;;;;5036307;28;20033;-76
2023/07/30 04:11:50;;;;;;;5.20;2.55;;;;;;;;;;5036336;28;20037;-77
2023/07/30 04:14:16;;;;;;;5.57;2.50;;;;;;;;;;5031038;28;20044;-75
2023/07/30 04:16:46;;;;;;;3.45;2.63;;;;;;;;;;5023517;28;20029;-77
2023/07/30 04:19:16;;;;;;;9.13;3.33;;;;;;;;;;5035106;28;20032;-76
2023/07/30 04:21:42;;;;;;;3.72;2.53;;;;;;;;;;5035213;28;20056;-75
2023/07/30 04:24:08;;;;;;;3.70;2.33;;;;;;;;;;5035949;28;20037;-77
2023/07/30 04:26:40;;;;;;;5.93;2.40;;;;;;;;;;5034886;28;20394;-77
2023/07/30 04:29:06;;;;;;;3.42;3.00;;;;;;;;;;5033516;28;20041;-75
2023/07/30 04:31:32;;;;;;;2.97;2.45;;;;;;;;;;5017379;28;20030;-75
2023/07/30 04:33:59;;;;;;;5.78;2.38;;;;;;;;;;4999488;28;20600;-76
2023/07/30 04:36:28;;;;;;;3.00;2.45;;;;;;;;;;4999556;28;20080;-76
2023/07/30 04:38:56;;;;;;;4.38;2.13;;;;;;;;;;4999578;28;20386;-76
2023/07/30 04:41:25;;;;;;;5.47;2.53;;;;;;;;;;4999254;28;20446;-75
2023/07/30 04:43:55;;;;;;;2.28;2.08;;;;;;;;;;4982388;28;20038;-75
2023/07/30 04:46:22;;;;;;;4.25;2.30;;;;;;;;;;4999542;28;20030;-77
2023/07/30 04:48:49;;;;;;;5.75;2.15;;;;;;;;;;5000923;28;20018;-76
2023/07/30 04:51:15;;;;;;;3.22;2.22;;;;;;;;;;5017858;28;20084;-77
2023/07/30 04:53:44;;;;;;;5.75;2.50;;;;;;;;;;4998973;28;20056;-76
2023/07/30 04:56:10;;;;;;;3.58;2.63;;;;;;;;;;4999359;28;20026;-76
2023/07/30 04:58:46;;;;;;;2.60;2.33;;;;;;;;;;4998717;28;20022;-77
2023/07/30 05:01:15;;;;;;;4.40;2.38;;;;;;;;;;4998749;28;20022;-76
2023/07/30 05:03:41;;;;;;;2.97;2.28;;;;;;;;;;5015463;28;20438;-76
2023/07/30 05:06:06;;;;;;;6.88;2.45;;;;;;;;;;5015551;28;20061;-76
2023/07/30 05:08:32;;;;;;;2.85;2.30;;;;;;;;;;5016368;28;20533;-75
2023/07/30 05:11:03;;;;;;;5.70;2.67;;;;;;;;;;5017455;28;20026;-75
2023/07/30 05:13:42;;;;;;;2.78;2.47;;;;;;;;;;4996940;28;20034;-76
2023/07/30 05:16:08;;;;;;;2.85;2.13;;;;;;;;;;5015635;28;20370;-75
2023/07/30 05:18:39;;;;;;;3.22;2.17;;;;;;;;;;5015543;28;20033;-76
2023/07/30 05:21:10;;;;;;;3.55;2.20;;;;;;;;;;4997823;28;20021;-75
2023/07/30 05:23:36;;;;;;;5.53;2.10;;;;;;;;;;4981533;28;20121;-76
2023/07/30 05:26:08;;;;;;;6.30;2.53;;;;;;;;;;4998309;28;20026;-75
2023/07/30 05:28:35;;;;;;;7.75;2.42;;;;;;;;;;5015554;28;20038;-76
2023/07/30 05:31:01;;;;;;;3.47;2.00;;;;;;;;;;4982218;28;20044;-76
2023/07/30 05:33:31;;;;;;;2.67;2.10;;;;;;;;;;4993587;28;20038;-76
2023/07/30 05:36:02;;;;;;;4.05;2.20;;;;;;;;;;4977439;28;20054;-76
2023/07/30 05:38:46;;;;;;;2.30;2.10;;;;;;;;;;4993954;28;20034;-77
2023/07/30 05:41:26;;;;;;;3.63;2.03;;;;;;;;;;4994481;28;20391;-77
2023/07/30 05:44:09;;;;;;;3.63;2.40;;;;;;;;;;4992989;28;20077;-76
2023/07/30 05:46:36;;;;;;;3.55;2.17;;;;;;;;;;4994360;28;20030;-75
2023/07/30 05:49:06;;;;;;;4.20;2.05;;;;;;;;;;4962437;28;20045;-77
2023/07/30 05:51:37;;;;;;;3.85;2.25;;;;;;;;;;4979429;28;20398;-76
2023/07/30 05:54:09;;;;;;;2.50;2.13;;;;;;;;;;4966996;28;20137;-76
2023/07/30 05:56:36;;;;;;;3.72;2.10;;;;;;;;;;5003212;28;20038;-75
2023/07/30 05:59:10;;;;;;;4.22;1.95;;;;;;;;;;5004378;28;20034;-76
2023/07/30 06:01:40;;;;;;;2.00;1.75;;;;;;;;;;4983064;28;20510;-76
2023/07/30 06:04:11;;;;;;;4.15;3.08;;;;;;;;;;4965563;28;20038;-77
2023/07/30 06:06:36;;;;;;;4.80;2.33;;;;;;;;;;4993768;28;20021;-76
2023/07/30 06:09:02;;;;;;;5.55;2.58;;;;;;;;;;5011122;28;20506;-77
2023/07/30 06:11:28;;;;;;;10.48;3.72;;;;;;;;;;5010819;28;20080;-76
2023/07/30 06:13:54;;;;;;;3.58;2.22;;;;;;;;;;4993075;28;20585;-76
2023/07/30 06:16:22;;;;;;;3.22;1.85;;;;;;;;;;4995091;28;20044;-79
2023/07/30 06:18:49;;;;;;;2.58;2.25;;;;;;;;;;4993777;28;20153;-81
2023/07/30 06:21:14;;;;;;;4.55;2.25;;;;;;;;;;5012092;28;20054;-79
2023/07/30 06:23:40;;;;;;;2.92;2.17;;;;;;;;;;4993987;28;20053;-80
2023/07/30 06:26:05;;;;;;;4.40;2.95;;;;;;;;;;4997370;28;20030;-78
2023/07/30 06:28:31;;;;;;;3.60;2.08;;;;;;;;;;5011507;28;20088;-79
2023/07/30 06:31:00;;;;;;;6.53;2.40;;;;;;;;;;5011354;28;20048;-80
2023/07/30 06:33:26;;;;;;;2.53;2.20;;;;;;;;;;5010994;28;20038;-79
2023/07/30 06:35:51;;;;;;;3.28;2.22;;;;;;;;;;4993691;28;20021;-80
2023/07/30 06:38:16;;;;;;;3.22;2.10;;;;;;;;;;4993410;28;20025;-80
2023/07/30 06:40:42;;;;;;;6.68;1.90;;;;;;;;;;4993065;28;20113;-80
2023/07/30 06:43:07;;;;;;;3.78;2.40;;;;;;;;;;5010854;28;20053;-79
2023/07/30 06:45:33;;;;;;;2.47;2.25;;;;;;;;;;5010824;28;20613;-79
2023/07/30 06:47:58;;;;;;;4.93;1.95;;;;;;;;;;5010709;28;20486;-81
2023/07/30 06:50:24;;;;;;;5.07;2.13;;;;;;;;;;5010926;28;20030;-78
2023/07/30 06:52:49;;;;;;;5.68;2.05;;;;;;;;;;5010732;28;20490;-79
2023/07/30 06:55:15;;;;;;;2.40;1.92;;;;;;;;;;4993387;28;20037;-79
2023/07/30 06:57:40;;;;;;;5.55;2.22;;;;;;;;;;4995064;28;21302;-79
2023/07/30 07:00:07;;;;;;;2.15;1.95;;;;;;;;;;4995490;28;20388;-78
2023/07/30 07:02:33;;;;;;;6.88;2.20;;;;;;;;;;5018199;28;20022;-79
2023/07/30 07:04:58;;;;;;;4.28;2.28;;;;;;;;;;5011224;28;20689;-80
2023/07/30 07:07:25;;;;;;;3.50;1.83;;;;;;;;;;5019574;28;20108;-81
2023/07/30 07:09:50;;;;;;;6.60;2.40;;;;;;;;;;5019609;28;20446;-79
2023/07/30 07:12:16;;;;;;;4.68;2.20;;;;;;;;;;5019200;28;20033;-78
2023/07/30 07:14:42;;;;;;;3.90;2.25;;;;;;;;;;5019311;28;20646;-80
2023/07/30 07:17:08;;;;;;;3.28;2.03;;;;;;;;;;5037104;28;20025;-79
2023/07/30 07:19:36;;;;;;;2.80;2.08;;;;;;;;;;5036572;28;20528;-80
2023/07/30 07:22:05;;;;;;;4.38;2.33;;;;;;;;;;5018741;28;20029;-79
2023/07/30 07:24:31;;;;;;;4.25;2.17;;;;;;;;;;5036535;28;20021;-79
2023/07/30 07:26:57;;;;;;;9.07;2.83;;;;;;;;;;5019031;28;20033;-78
2023/07/30 07:29:23;;;;;;;5.15;2.72;;;;;;;;;;5027208;28;20569;-81
2023/07/30 07:31:49;;;;;;;4.18;2.58;;;;;;;;;;5036848;28;20775;-81
2023/07/30 07:34:15;;;;;;;10.05;2.35;;;;;;;;;;5035986;28;20116;-80
2023/07/30 07:36:41;;;;;;;4.28;2.35;;;;;;;;;;5036628;28;20056;-79
2023/07/30 07:39:06;;;;;;;2.72;2.15;;;;;;;;;;5035069;28;20072;-81
2023/07/30 07:41:32;;;;;;;3.55;2.58;;;;;;;;;;5035562;28;20021;-80
2023/07/30 07:43:57;;;;;;;2.30;2.05;;;;;;;;;;5036774;28;20429;-79
2023/07/30 07:46:26;;;;;;;2.47;1.80;;;;;;;;;;5035209;28;20048;-80
2023/07/30 07:48:51;;;;;;;3.28;1.50;;;;;;;;;;5034719;28;20116;-80
2023/07/30 07:51:17;;;;;;;3.42;1.60;;;;;;;;;;5036612;28;20133;-82
2023/07/30 07:53:42;;;;;;;2.25;1.30;;;;;;;;;;5019082;28;20030;-82
2023/07/30 07:56:08;;;;;;;4.30;1.42;;;;;;;;;;5036777;28;20047;-81
2023/07/30 07:58:35;;;;;;;5.75;2.55;;;;;;;;;;5039319;28;20041;-83
2023/07/30 08:01:01;;;;;;;3.03;1.52;;;;;;;;;;5041492;28;20055;-83
2023/07/30 08:03:26;;;;;;;4.57;2.15;;;;;;;;;;5050908;28;20497;-82
2023/07/30 08:05:53;;;;;;;5.47;1.55;;;;;;;;;;5057574;28;20037;-82
2023/07/30 08:08:19;;;;;;;3.80;1.40;;;;;;;;;;5049674;28;20025;-81
2023/07/30 08:10:46;;;;;;;2.13;1.30;;;;;;;;;;5052085;28;20051;-81
2023/07/30 08:13:13;;;;;;;2.67;1.80;;;;;;;;;;5049659;28;20026;-81
2023/07/30 08:15:39;;;;;;;8.60;1.75;;;;;;;;;;5053747;28;20034;-82
2023/07/30 08:18:04;;;;;;;1.58;1.27;;;;;;;;;;5042356;28;20048;-80
2023/07/30 08:20:30;;;;;;;4.25;1.35;;;;;;;;;;5042846;28;20022;-81
2023/07/30 08:22:55;;;;;;;4.97;1.60;;;;;;;;;;5038510;28;20080;-80
2023/07/30 08:25:21;;;;;;;6.18;1.77;;;;;;;;;;5032944;28;20424;-81
2023/07/30 08:27:47;;;;;;;5.95;1.88;;;;;;;;;;5034653;28;20501;-80
2023/07/30 08:30:12;;;;;;;3.45;1.65;;;;;;;;;;5023690;28;20115;-84
2023/07/30 08:32:38;;;;;;;7.55;2.10;;;;;;;;;;5033774;28;20029;-81
2023/07/30 08:35:05;;;;;;;7.22;2.15;;;;;;;;;;5033287;28;20029;-81
2023/07/30 08:37:31;;;;;;;5.35;1.60;;;;;;;;;;5033629;28;20029;-81
2023/07/30 08:39:56;;;;;;;3.75;1.58;;;;;;;;;;5031937;28;20035;-80
2023/07/30 08:42:22;;;;;;;4.97;1.73;;;;;;;;;;5033680;28;20026;-80
2023/07/30 08:44:48;;;;;;;4.32;1.95;;;;;;;;;;5033091;28;20053;-82
2023/07/30 08:47:13;;;;;;;2.78;1.50;;;;;;;;;;5031866;28;20415;-82
2023/07/30 08:49:39;;;;;;;4.13;1.70;;;;;;;;;;5031265;28;20484;-80
2023/07/30 08:52:09;;;;;;;2.13;1.73;;;;;;;;;;5033239;28;20436;-84
2023/07/30 08:54:37;;;;;;;5.05;1.42;;;;;;;;;;5031316;28;20026;-75
2023/07/30 08:57:03;;;;;;;3.10;1.35;;;;;;;;;;5032023;28;20053;-76
2023/07/30 08:59:37;;;;;;;2.72;1.63;;;;;;;;;;5031744;28;20514;-75
2023/07/30 09:02:08;;;;;;;3.58;1.30;;;;;;;;;;5030754;28;20030;-74
2023/07/30 09:04:37;;;;;;;1.75;1.58;;;;;;;;;;5030431;28;20021;-76
2023/07/30 09:07:03;;;;;;;3.30;1.42;;;;;;;;;;5031799;28;20033;-75
2023/07/30 09:09:28;;;;;;;3.25;1.33;;;;;;;;;;5030586;28;20643;-74
2023/07/30 09:11:55;;;;;;;3.38;1.50;;;;;;;;;;5030463;28;20493;-75
2023/07/30 09:14:21;;;;;;;5.03;1.95;;;;;;;;;;5030606;28;20433;-75
2023/07/30 09:16:47;;;;;;;2.33;1.52;;;;;;;;;;5030432;28;20478;-74
2023/07/30 09:19:19;;;;;;;3.78;1.52;;;;;;;;;;5030679;28;20030;-75
2023/07/30 09:21:45;;;;;;;2.05;1.75;;;;;;;;;;5031731;28;20458;-75
2023/07/30 09:24:11;;;;;;;3.83;2.00;;;;;;;;;;5029339;28;20087;-76
2023/07/30 09:26:47;;;;;;;2.45;1.80;;;;;;;;;;5030012;28;20029;-75
2023/07/30 09:29:13;;;;;;;2.58;1.88;;;;;;;;;;5030313;28;20056;-75
2023/07/30 09:31:55;;;;;;;2.15;1.65;;;;;;;;;;5031594;28;20036;-76
2023/07/30 09:34:22;;;;;;;2.17;1.88;;;;;;;;;;5031942;28;20053;-75
2023/07/30 09:36:50;;;;;;;2.20;2.00;;;;;;;;;;5031572;28;20493;-76
2023/07/30 09:39:20;;;;;;;3.85;2.00;;;;;;;;;;5032428;28;20525;-76
2023/07/30 09:41:46;;;;;;;2.20;1.98;;;;;;;;;;5032071;28;20060;-74
2023/07/30 09:44:12;;;;;;;3.88;2.20;;;;;;;;;;5031824;28;20397;-75
2023/07/30 09:46:46;;;;;;;2.13;1.90;;;;;;;;;;5030458;28;20059;-75
2023/07/30 09:49:16;;;;;;;7.20;1.98;;;;;;;;;;5033574;28;20041;-75
2023/07/30 09:51:42;;;;;;;5.72;2.25;;;;;;;;;;5016264;28;20461;-74
2023/07/30 09:54:09;;;;;;;5.32;2.35;;;;;;;;;;5032312;28;20059;-74
2023/07/30 09:56:37;;;;;;;2.40;2.10;;;;;;;;;;5031854;28;20033;-74
2023/07/30 09:59:05;;;;;;;4.35;2.20;;;;;;;;;;5033675;28;20052;-76
2023/07/30 10:01:49;;;;;;;3.47;2.03;;;;;;;;;;5034274;28;20025;-75
2023/07/30 10:04:31;;;;;;;3.70;2.20;;;;;;;;;;5035850;28;20017;-75
2023/07/30 10:07:15;;;;;;;2.25;1.98;;;;;;;;;;5034517;28;20293;-75
2023/07/30 10:09:50;;;;;;;7.38;1.88;;;;;;;;;;5035691;28;20029;-74
2023/07/30 10:12:26;;;;;;;3.53;2.40;;;;;;;;;;5021309;28;20041;-77
2023/07/30 10:15:02;;;;;;;1.95;1.83;;;;;;;;;;5043674;28;20021;-74
2023/07/30 10:17:31;;;;;;;3.70;1.83;;;;;;;;;;5043545;28;20056;-75
2023/07/30 10:20:45;;;;;;;2.38;2.17;;;;;;;;;;5038021;28;20029;-75
2023/07/30 10:23:24;;;;;;;2.30;2.10;;;;;;;;;;5051197;28;20076;-77
2023/07/30 10:26:13;;;;;;;2.25;2.00;;;;;;;;;;5035142;28;20032;-75
2023/07/30 10:28:43;;;;;;;2.40;2.20;;;;;;;;;;5035443;28;20045;-74
2023/07/30 10:31:22;;;;;;;1.88;1.77;;;;;;;;;;5017098;28;20030;-75
2023/07/30 10:33:56;;;;;;;2.17;1.98;;;;;;;;;;5016750;28;20033;-76
2023/07/30 10:37:11;;;;;;;3.00;2.22;;;;;;;;;;5016809;28;20029;-76
2023/07/30 10:39:41;;;;;;;3.28;2.10;;;;;;;;;;5025759;28;20053;-76
2023/07/30 10:42:33;;;;;;;6.43;2.47;;;;;;;;;;5016831;28;20025;-76
2023/07/30 10:44:59;;;;;;;4.00;1.65;;;;;;;;;;4999241;28;20037;-75
2023/07/30 10:47:28;;;;;;;3.25;2.38;;;;;;;;;;5034789;28;20026;-76
2023/07/30 10:50:20;;;;;;;4.68;2.08;;;;;;;;;;5034364;28;20013;-76
2023/07/30 10:52:49;;;;;;;2.17;1.98;;;;;;;;;;5032900;28;20030;-74
2023/07/30 10:55:18;;;;;;;4.43;1.73;;;;;;;;;;5016030;28;20021;-75
2023/07/30 10:58:00;;;;;;;2.10;1.90;;;;;;;;;;5000364;28;20033;-75
2023/07/30 11:00:37;;;;;;;;;;;;;;;;;;5016840;28;20128;-76
2023/07/30 11:03:12;;;;;;;1.27;1.15;;;;;;;;;;5016518;28;19912;-76
2023/07/30 11:06:07;;;;;;;7.82;1.98;;;;;;;;;;5033587;28;20097;-75
2023/07/30 11:08:47;;;;;;;3.95;1.52;;;;;;;;;;5033430;28;20041;-76
2023/07/30 11:11:35;;;;;;;3.05;1.58;;;;;;;;;;5013963;28;20029;-75
2023/07/30 11:14:04;;;;;;;1.55;1.45;;;;;;;;;;5016164;28;20022;-75
2023/07/30 11:16:39;;;;;;;2.15;1.88;;;;;;;;;;5033725;28;20025;-76
2023/07/30 11:19:13;;;;;;;1.90;1.67;;;;;;;;;;5016566;28;20026;-76
2023/07/30 11:21:53;;;;;;;2.28;1.77;;;;;;;;;;5017191;28;20033;-75
2023/07/30 11:24:20;;;;;;;1.70;1.60;;;;;;;;;;5016434;28;20022;-74
2023/07/30 11:27:04;;;;;;;1.50;1.40;;;;;;;;;;5032221;28;20393;-75
2023/07/30 11:29:36;;;;;;;3.05;1.65;;;;;;;;;;5033291;28;20076;-75
2023/07/30 11:32:15;;;;;;;4.18;1.90;;;;;;;;;;5016194;28;20080;-73
2023/07/30 11:34:50;;;;;;;2.13;1.58;;;;;;;;;;5016015;28;20369;-75
2023/07/30 11:37:33;;;;;;;1.42;1.33;;;;;;;;;;5016300;28;20029;-76
2023/07/30 11:40:11;;;;;;;1.92;1.40;;;;;;;;;;5016624;28;20572;-76
2023/07/30 11:42:43;;;;;;;1.65;1.55;;;;;;;;;;5015742;28;20083;-74
2023/07/30 11:45:24;;;;;;;1.58;1.48;;;;;;;;;;5014980;28;20454;-76
2023/07/30 11:47:52;;;;;;;1.95;1.33;;;;;;;;;;5034517;28;20021;-76
2023/07/30 11:50:20;;;;;;;1.65;1.40;;;;;;;;;;5036532;28;20045;-76
2023/07/30 11:52:54;;;;;;;2.92;2.05;;;;;;;;;;5035969;28;20026;-75
2023/07/30 11:55:38;;;;;;;2.00;1.35;;;;;;;;;;5018174;28;20029;-76
2023/07/30 11:58:05;;;;;;;2.80;1.50;;;;;;;;;;5035145;28;20075;-74
2023/07/30 12:00:35;;;;;;;1.60;1.33;;;;;;;;;;5019010;28;20029;-75
2023/07/30 12:03:15;;;;;;;3.22;1.90;;;;;;;;;;5020237;28;20063;-74
2023/07/30 12:05:44;;;;;;;2.47;1.40;;;;;;;;;;5019182;28;20128;-75
2023/07/30 12:08:29;;;;;;;1.90;1.30;;;;;;;;;;5037500;28;20073;-75
2023/07/30 12:11:07;;;;;;;2.25;1.33;;;;;;;;;;5036107;28;20481;-75
2023/07/30 12:13:45;;;;;;;5.38;1.60;;;;;;;;;;5019232;28;20401;-76
2023/07/30 12:16:12;;;;;;;1.50;1.40;;;;;;;;;;5021020;28;20030;-75
2023/07/30 12:18:43;;;;;;;2.63;1.40;;;;;;;;;;5019620;28;20029;-77
2023/07/30 12:21:18;;;;;;;4.65;1.73;;;;;;;;;;5037812;28;20064;-76
2023/07/30 12:23:52;;;;;;;1.88;1.50;;;;;;;;;;5019530;28;20046;-75
2023/07/30 12:26:28;;;;;;;1.90;1.73;;;;;;;;;;5014669;28;20418;-76
2023/07/30 12:28:56;;;;;;;3.13;1.30;;;;;;;;;;5036699;28;20041;-74
2023/07/30 12:31:32;;;;;;;2.38;1.45;;;;;;;;;;5035400;28;20030;-76
2023/07/30 12:33:59;;;;;;;2.78;1.42;;;;;;;;;;5020819;28;20049;-75
2023/07/30 12:36:25;;;;;;;3.75;1.50;;;;;;;;;;5019844;28;20033;-75
2023/07/30 12:39:00;;;;;;;1.95;1.40;;;;;;;;;;5019218;28;20030;-75
2023/07/30 12:41:35;;;;;;;1.92;1.50;;;;;;;;;;5037907;28;20110;-77
2023/07/30 12:44:14;;;;;;;2.88;1.42;;;;;;;;;;5021869;28;20025;-77
2023/07/30 12:46:46;;;;;;;1.40;1.30;;;;;;;;;;5018706;28;20477;-77
2023/07/30 12:49:24;;;;;;;1.70;1.58;;;;;;;;;;5018893;28;20466;-75
2023/07/30 12:52:00;;;;;;;1.95;1.75;;;;;;;;;;5036384;28;20052;-75
2023/07/30 12:54:26;;;;;;;1.88;1.58;;;;;;;;;;5003260;28;20481;-75
2023/07/30 12:57:09;;;;;;;1.55;1.27;;;;;;;;;;5018396;28;20033;-75
2023/07/30 12:59:39;;;;;;;2.20;1.70;;;;;;;;;;5018798;28;20021;-75
2023/07/30 13:02:08;;;;;;;2.45;1.67;;;;;;;;;;5004767;28;20044;-77
2023/07/30 13:04:44;;;;;;;2.20;1.67;;;;;;;;;;5020548;28;20087;-77
2023/07/30 13:07:14;;;;;;;1.70;1.30;;;;;;;;;;5003404;28;20116;-74
2023/07/30 13:09:40;;;;;;;1.50;1.40;;;;;;;;;;5020364;28;20504;-74
2023/07/30 13:12:13;;;;;;;2.83;1.33;;;;;;;;;;5036261;28;20555;-77
2023/07/30 13:14:47;;;;;;;2.03;1.30;;;;;;;;;;5020340;28;20025;-74
2023/07/30 13:17:13;;;;;;;5.43;1.30;;;;;;;;;;5019456;28;20021;-75
2023/07/30 13:19:48;;;;;;;1.30;1.20;;;;;;;;;;5018769;28;20022;-76
2023/07/30 13:22:16;;;;;;;2.22;1.17;;;;;;;;;;5019386;28;20036;-76
2023/07/30 13:24:46;;;;;;;1.58;1.25;;;;;;;;;;5036685;28;20155;-75
2023/07/30 13:27:14;;;;;;;2.47;1.77;;;;;;;;;;5019770;28;20033;-74
2023/07/30 13:29:46;;;;;;;1.30;1.20;;;;;;;;;;5029694;28;20182;-75
2023/07/30 13:32:12;;;;;;;1.45;1.10;;;;;;;;;;5020998;28;20045;-74
2023/07/30 13:34:43;;;;;;;2.53;1.63;;;;;;;;;;5036575;28;20030;-77
2023/07/30 13:37:14;;;;;;;0.90;0.90;;;;;;;;;;5036859;28;20041;-77
2023/07/30 13:39:51;;;;;;;4.18;1.17;;;;;;;;;;5036396;28;20478;-77
2023/07/30 13:42:23;;;;;;;1.40;1.27;;;;;;;;;;5036636;28;20135;-75
2023/07/30 13:45:00;;;;;;;2.20;1.30;;;;;;;;;;5036351;28;20500;-76
2023/07/30 13:47:32;;;;;;;2.70;1.50;;;;;;;;;;5036767;28;20029;-75
2023/07/30 13:50:09;;;;;;;1.70;1.60;;;;;;;;;;5038615;28;20119;-76
2023/07/30 13:52:48;;;;;;;3.17;1.45;;;;;;;;;;5037731;28;20033;-75
2023/07/30 13:55:17;;;;;;;2.03;1.17;;;;;;;;;;5035640;28;20339;-75
2023/07/30 13:57:51;;;;;;;2.80;1.23;;;;;;;;;;5036421;28;20083;-77
2023/07/30 14:00:47;;;;;;;1.27;1.15;;;;;;;;;;5037414;28;20037;-78
2023/07/30 14:03:13;;;;;;;1.35;1.23;;;;;;;;;;5033981;28;20033;-77
2023/07/30 14:05:52;;;;;;;3.05;1.17;;;;;;;;;;5035948;28;20029;-77
2023/07/30 14:08:20;;;;;;;1.55;1.20;;;;;;;;;;5036051;28;20120;-78
2023/07/30 14:11:01;;;;;;;2.20;1.55;;;;;;;;;;5036093;28;20084;-77
2023/07/30 14:13:27;;;;;;;1.70;1.48;;;;;;;;;;5035952;28;20032;-75
2023/07/30 14:16:08;;;;;;;1.10;0.98;;;;;;;;;;5037607;28;20029;-76
2023/07/30 14:18:39;;;;;;;1.15;0.90;;;;;;;;;;5036260;28;20060;-77
2023/07/30 14:21:14;;;;;;;1.50;1.13;;;;;;;;;;5037064;28;20029;-76
2023/07/30 14:23:45;;;;;;;1.67;1.38;;;;;;;;;;5037270;28;20079;-77
2023/07/30 14:26:23;;;;;;;1.92;1.23;;;;;;;;;;5039660;28;20168;-75
2023/07/30 14:28:49;;;;;;;1.48;1.38;;;;;;;;;;5039514;28;20045;-76
2023/07/30 14:31:34;;;;;;;1.67;1.58;;;;;;;;;;5041507;28;20045;-74
2023/07/30 14:34:02;;;;;;;3.80;1.67;;;;;;;;;;5044338;28;20317;-76
2023/07/30 14:36:31;;;;;;;2.63;1.98;;;;;;;;;;5040391;28;20116;-77
2023/07/30 14:39:07;;;;;;;2.33;1.60;;;;;;;;;;5035351;28;20025;-75
2023/07/30 14:41:39;;;;;;;2.42;1.40;;;;;;;;;;5035047;28;20048;-75
2023/07/30 14:44:06;;;;;;;1.55;1.45;;;;;;;;;;5034898;28;20021;-76
2023/07/30 14:46:38;;;;;;;2.65;1.17;;;;;;;;;;5035726;28;20045;-76
2023/07/30 14:49:13;;;;;;;7.60;1.60;;;;;;;;;;5035145;28;20025;-74
2023/07/30 14:51:42;;;;;;;1.73;1.60;;;;;;;;;;5034229;28;20021;-76
2023/07/30 14:54:10;;;;;;;2.38;1.63;;;;;;;;;;5036168;28;20389;-76
2023/07/30 14:56:46;;;;;;;2.00;1.70;;;;;;;;;;5035471;28;20508;-76
2023/07/30 14:59:20;;;;;;;1.52;1.25;;;;;;;;;;5029338;28;20040;-76